Terminal Aerodrome Forecast
Issued by NWS

Home | Current Version | Previous Version | Text Only | Print | Product List | Glossary On
Versions: 1 2 3 4 5 6 7 8 9 10 11 12 13
000
FTUS41 KCAR 070539
TAFHUL
TAF
KHUL 070539Z 0706/0806 VRB03KT P6SM SCT120
     FM071200 32012G20KT P6SM BKN100
     FM072200 36008KT P6SM BKN100
     FM080200 02004KT P6SM BKN080=

USA.gov is the U.S. government's official web portal to all federal, state and local government web resources and services.